首页
METAR-TAF:

METAR-TAF

机场 :

防府, 日本

纬度: 34-02N, 经度: 131-33E, 海拔: 2米

当前天气观测

该预报发布于2小时和26分钟前的06:26 UTC
风速7节,风向南转西南
温度 13°C
湿度 51%
气压 1020 hPa
能见度10公里或以上
少量云层高于4000英尺
多云层高于18000英尺
多云层高于23000英尺

METAR: RJOF 040626Z 21007KT 9999 FEW040 BKN180 BKN230 13/03 Q1020 RMK 1CU040 5AC180 A3014 RWY12 24007KT

时间: 17:52 (08:52 UTC)


TAF: 丢失

超过4000个机场的气象观测和天气预报(METAR&TAF报告)。

可查询的气象台以黄色和红色小点在地图上表示。

将鼠标移到小点上方,可查看气象台名称。

然后点击查看天气观测和预报。

如需切换地图:点击带黑十字的绿色按钮放大地图;点击带横线的绿色按钮缩小地图;或者点击绿色箭头查看邻近地区的地图。


METAR-TAF: